sensor_id;sensor_type;location;lat;lon;timestamp;P1;durP1;ratioP1;P2;durP2;ratioP2
21894;SDS011;11112;51.270;7.224;2022-07-29T00:00:58;10.30;;;1.48;;
21894;SDS011;11112;51.270;7.224;2022-07-29T00:03:26;6.82;;;1.50;;
21894;SDS011;11112;51.270;7.224;2022-07-29T00:05:53;8.18;;;1.50;;
21894;SDS011;11112;51.270;7.224;2022-07-29T00:08:20;8.80;;;1.50;;
21894;SDS011;11112;51.270;7.224;2022-07-29T00:10:50;9.13;;;1.65;;
21894;SDS011;11112;51.270;7.224;2022-07-29T00:13:17;9.07;;;1.52;;
21894;SDS011;11112;51.270;7.224;2022-07-29T00:15:46;10.05;;;1.70;;
21894;SDS011;11112;51.270;7.224;2022-07-29T00:18:13;7.22;;;1.70;;
21894;SDS011;11112;51.270;7.224;2022-07-29T00:20:40;6.35;;;1.83;;
21894;SDS011;11112;51.270;7.224;2022-07-29T00:23:07;10.32;;;2.05;;
21894;SDS011;11112;51.270;7.224;2022-07-29T00:25:35;6.90;;;1.75;;
21894;SDS011;11112;51.270;7.224;2022-07-29T00:28:02;8.05;;;3.38;;
21894;SDS011;11112;51.270;7.224;2022-07-29T00:30:29;6.68;;;2.13;;
21894;SDS011;11112;51.270;7.224;2022-07-29T00:32:58;8.50;;;1.65;;
21894;SDS011;11112;51.270;7.224;2022-07-29T00:35:25;8.90;;;1.50;;
21894;SDS011;11112;51.270;7.224;2022-07-29T00:38:12;5.15;;;1.42;;
21894;SDS011;11112;51.270;7.224;2022-07-29T00:40:40;8.57;;;1.80;;
21894;SDS011;11112;51.270;7.224;2022-07-29T00:43:08;5.32;;;1.45;;
21894;SDS011;11112;51.270;7.224;2022-07-29T00:45:35;6.35;;;1.60;;
21894;SDS011;11112;51.270;7.224;2022-07-29T00:48:05;6.75;;;1.65;;
21894;SDS011;11112;51.270;7.224;2022-07-29T00:50:34;4.20;;;1.65;;
21894;SDS011;11112;51.270;7.224;2022-07-29T00:53:02;8.63;;;1.70;;
21894;SDS011;11112;51.270;7.224;2022-07-29T00:55:32;5.25;;;1.48;;
21894;SDS011;11112;51.270;7.224;2022-07-29T00:58:03;6.55;;;1.65;;
21894;SDS011;11112;51.270;7.224;2022-07-29T01:00:30;7.55;;;1.60;;
21894;SDS011;11112;51.270;7.224;2022-07-29T01:02:57;6.90;;;1.38;;
21894;SDS011;11112;51.270;7.224;2022-07-29T01:05:26;5.10;;;1.48;;
21894;SDS011;11112;51.270;7.224;2022-07-29T01:07:55;6.95;;;1.48;;
21894;SDS011;11112;51.270;7.224;2022-07-29T01:10:25;6.85;;;1.40;;
21894;SDS011;11112;51.270;7.224;2022-07-29T01:12:58;3.88;;;1.40;;
21894;SDS011;11112;51.270;7.224;2022-07-29T01:15:27;7.10;;;1.50;;
21894;SDS011;11112;51.270;7.224;2022-07-29T01:17:58;5.25;;;1.50;;
21894;SDS011;11112;51.270;7.224;2022-07-29T01:20:35;5.90;;;1.52;;
21894;SDS011;11112;51.270;7.224;2022-07-29T01:26:33;6.35;;;1.80;;
21894;SDS011;11112;51.270;7.224;2022-07-29T01:29:12;9.43;;;1.70;;
21894;SDS011;11112;51.270;7.224;2022-07-29T01:31:54;5.35;;;1.67;;
21894;SDS011;11112;51.270;7.224;2022-07-29T01:34:29;6.30;;;1.52;;
21894;SDS011;11112;51.270;7.224;2022-07-29T01:37:06;5.93;;;1.77;;
21894;SDS011;11112;51.270;7.224;2022-07-29T01:39:40;7.20;;;1.75;;
21894;SDS011;11112;51.270;7.224;2022-07-29T01:42:12;5.53;;;1.55;;
21894;SDS011;11112;51.270;7.224;2022-07-29T01:44:55;8.52;;;1.95;;
21894;SDS011;11112;51.270;7.224;2022-07-29T01:47:30;9.40;;;2.00;;
21894;SDS011;11112;51.270;7.224;2022-07-29T01:50:05;6.63;;;1.80;;
21894;SDS011;11112;51.270;7.224;2022-07-29T01:55:13;7.13;;;1.50;;
21894;SDS011;11112;51.270;7.224;2022-07-29T01:57:44;7.32;;;1.92;;
21894;SDS011;11112;51.270;7.224;2022-07-29T02:00:17;7.63;;;1.80;;
21894;SDS011;11112;51.270;7.224;2022-07-29T02:02:45;6.20;;;1.67;;
21894;SDS011;11112;51.270;7.224;2022-07-29T02:05:14;6.28;;;1.83;;
21894;SDS011;11112;51.270;7.224;2022-07-29T02:07:44;6.85;;;1.77;;
21894;SDS011;11112;51.270;7.224;2022-07-29T02:10:13;8.10;;;1.77;;
21894;SDS011;11112;51.270;7.224;2022-07-29T02:12:44;9.13;;;1.90;;
21894;SDS011;11112;51.270;7.224;2022-07-29T02:15:12;4.75;;;1.75;;
21894;SDS011;11112;51.270;7.224;2022-07-29T02:17:43;7.85;;;2.08;;
21894;SDS011;11112;51.270;7.224;2022-07-29T02:20:15;7.68;;;1.75;;
21894;SDS011;11112;51.270;7.224;2022-07-29T02:22:43;8.10;;;1.75;;
21894;SDS011;11112;51.270;7.224;2022-07-29T02:25:13;9.32;;;1.90;;
21894;SDS011;11112;51.270;7.224;2022-07-29T02:27:41;10.73;;;2.00;;
21894;SDS011;11112;51.270;7.224;2022-07-29T02:30:11;4.60;;;1.70;;
21894;SDS011;11112;51.270;7.224;2022-07-29T02:32:39;6.25;;;1.65;;
21894;SDS011;11112;51.270;7.224;2022-07-29T02:35:10;7.45;;;1.80;;
21894;SDS011;11112;51.270;7.224;2022-07-29T02:37:40;6.55;;;1.90;;
21894;SDS011;11112;51.270;7.224;2022-07-29T02:40:31;6.20;;;1.83;;
21894;SDS011;11112;51.270;7.224;2022-07-29T02:42:59;9.60;;;2.10;;
21894;SDS011;11112;51.270;7.224;2022-07-29T02:45:28;8.23;;;1.90;;
21894;SDS011;11112;51.270;7.224;2022-07-29T02:47:57;6.75;;;1.50;;
21894;SDS011;11112;51.270;7.224;2022-07-29T02:50:32;7.00;;;1.70;;
21894;SDS011;11112;51.270;7.224;2022-07-29T02:53:07;5.28;;;1.70;;
21894;SDS011;11112;51.270;7.224;2022-07-29T02:55:40;7.82;;;1.70;;
21894;SDS011;11112;51.270;7.224;2022-07-29T02:58:13;5.75;;;1.90;;
21894;SDS011;11112;51.270;7.224;2022-07-29T03:00:51;6.57;;;1.98;;
21894;SDS011;11112;51.270;7.224;2022-07-29T03:03:21;6.20;;;1.80;;
21894;SDS011;11112;51.270;7.224;2022-07-29T03:05:52;8.00;;;1.75;;
21894;SDS011;11112;51.270;7.224;2022-07-29T03:08:21;7.40;;;2.00;;
21894;SDS011;11112;51.270;7.224;2022-07-29T03:10:52;5.93;;;2.00;;
21894;SDS011;11112;51.270;7.224;2022-07-29T03:13:20;6.80;;;1.60;;
21894;SDS011;11112;51.270;7.224;2022-07-29T03:15:51;4.80;;;1.88;;
21894;SDS011;11112;51.270;7.224;2022-07-29T03:18:21;6.90;;;1.80;;
21894;SDS011;11112;51.270;7.224;2022-07-29T03:20:49;7.10;;;1.90;;
21894;SDS011;11112;51.270;7.224;2022-07-29T03:23:18;6.93;;;2.05;;
21894;SDS011;11112;51.270;7.224;2022-07-29T03:25:46;6.90;;;1.95;;
21894;SDS011;11112;51.270;7.224;2022-07-29T03:28:13;4.25;;;1.70;;
21894;SDS011;11112;51.270;7.224;2022-07-29T03:30:40;5.65;;;1.88;;
21894;SDS011;11112;51.270;7.224;2022-07-29T03:33:08;4.30;;;1.50;;
21894;SDS011;11112;51.270;7.224;2022-07-29T03:35:36;5.43;;;1.90;;
21894;SDS011;11112;51.270;7.224;2022-07-29T03:38:04;7.80;;;2.03;;
21894;SDS011;11112;51.270;7.224;2022-07-29T03:40:31;6.95;;;3.00;;
21894;SDS011;11112;51.270;7.224;2022-07-29T03:43:02;16.38;;;6.05;;
21894;SDS011;11112;51.270;7.224;2022-07-29T03:45:35;11.90;;;6.72;;
21894;SDS011;11112;51.270;7.224;2022-07-29T03:48:07;7.63;;;2.92;;
21894;SDS011;11112;51.270;7.224;2022-07-29T03:50:39;7.65;;;2.17;;
21894;SDS011;11112;51.270;7.224;2022-07-29T03:53:06;5.55;;;2.20;;
21894;SDS011;11112;51.270;7.224;2022-07-29T03:55:36;9.77;;;2.85;;
21894;SDS011;11112;51.270;7.224;2022-07-29T03:58:07;8.23;;;2.53;;
21894;SDS011;11112;51.270;7.224;2022-07-29T04:00:36;9.98;;;3.90;;
21894;SDS011;11112;51.270;7.224;2022-07-29T04:03:04;10.15;;;2.50;;
21894;SDS011;11112;51.270;7.224;2022-07-29T04:05:32;9.15;;;2.28;;
21894;SDS011;11112;51.270;7.224;2022-07-29T04:08:01;6.22;;;2.25;;
21894;SDS011;11112;51.270;7.224;2022-07-29T04:10:31;11.50;;;3.00;;
21894;SDS011;11112;51.270;7.224;2022-07-29T04:12:58;7.63;;;2.72;;
21894;SDS011;11112;51.270;7.224;2022-07-29T04:15:26;7.03;;;2.00;;
21894;SDS011;11112;51.270;7.224;2022-07-29T04:17:53;7.90;;;2.60;;
21894;SDS011;11112;51.270;7.224;2022-07-29T04:20:21;7.90;;;1.85;;
21894;SDS011;11112;51.270;7.224;2022-07-29T04:22:50;8.90;;;2.28;;
21894;SDS011;11112;51.270;7.224;2022-07-29T04:25:19;11.20;;;1.80;;
21894;SDS011;11112;51.270;7.224;2022-07-29T04:27:46;7.93;;;1.95;;
21894;SDS011;11112;51.270;7.224;2022-07-29T04:30:29;5.00;;;1.80;;
21894;SDS011;11112;51.270;7.224;2022-07-29T04:32:57;8.57;;;2.20;;
21894;SDS011;11112;51.270;7.224;2022-07-29T04:35:25;6.35;;;2.00;;
21894;SDS011;11112;51.270;7.224;2022-07-29T04:37:53;7.40;;;2.22;;
21894;SDS011;11112;51.270;7.224;2022-07-29T04:40:21;8.23;;;1.90;;
21894;SDS011;11112;51.270;7.224;2022-07-29T04:42:49;7.35;;;1.90;;
21894;SDS011;11112;51.270;7.224;2022-07-29T04:45:16;6.97;;;1.80;;
21894;SDS011;11112;51.270;7.224;2022-07-29T04:47:43;9.63;;;1.90;;
21894;SDS011;11112;51.270;7.224;2022-07-29T04:50:10;6.38;;;2.05;;
21894;SDS011;11112;51.270;7.224;2022-07-29T04:52:37;8.13;;;1.98;;
21894;SDS011;11112;51.270;7.224;2022-07-29T04:55:05;5.70;;;1.90;;
21894;SDS011;11112;51.270;7.224;2022-07-29T04:57:34;7.57;;;1.98;;
21894;SDS011;11112;51.270;7.224;2022-07-29T05:00:05;5.95;;;1.60;;
21894;SDS011;11112;51.270;7.224;2022-07-29T05:02:33;5.22;;;1.95;;
21894;SDS011;11112;51.270;7.224;2022-07-29T05:05:00;5.82;;;1.88;;
21894;SDS011;11112;51.270;7.224;2022-07-29T05:07:28;6.40;;;1.80;;
21894;SDS011;11112;51.270;7.224;2022-07-29T05:09:55;6.82;;;1.50;;
21894;SDS011;11112;51.270;7.224;2022-07-29T05:12:22;13.13;;;2.03;;
21894;SDS011;11112;51.270;7.224;2022-07-29T05:14:51;8.18;;;2.38;;
21894;SDS011;11112;51.270;7.224;2022-07-29T05:17:19;5.60;;;1.70;;
21894;SDS011;11112;51.270;7.224;2022-07-29T05:19:46;12.07;;;2.17;;
21894;SDS011;11112;51.270;7.224;2022-07-29T05:22:15;7.88;;;2.00;;
21894;SDS011;11112;51.270;7.224;2022-07-29T05:24:42;7.35;;;1.67;;
21894;SDS011;11112;51.270;7.224;2022-07-29T05:27:10;9.60;;;1.73;;
21894;SDS011;11112;51.270;7.224;2022-07-29T05:29:37;6.53;;;1.83;;
21894;SDS011;11112;51.270;7.224;2022-07-29T05:32:06;9.02;;;1.60;;
21894;SDS011;11112;51.270;7.224;2022-07-29T05:34:33;7.53;;;1.65;;
21894;SDS011;11112;51.270;7.224;2022-07-29T05:37:00;5.38;;;1.75;;
21894;SDS011;11112;51.270;7.224;2022-07-29T05:39:27;6.57;;;1.40;;
21894;SDS011;11112;51.270;7.224;2022-07-29T05:41:54;7.03;;;1.70;;
21894;SDS011;11112;51.270;7.224;2022-07-29T05:44:22;6.72;;;1.35;;
21894;SDS011;11112;51.270;7.224;2022-07-29T05:46:49;6.07;;;1.60;;
21894;SDS011;11112;51.270;7.224;2022-07-29T05:49:20;8.98;;;1.80;;
21894;SDS011;11112;51.270;7.224;2022-07-29T05:51:48;8.90;;;2.03;;
21894;SDS011;11112;51.270;7.224;2022-07-29T05:54:15;7.70;;;1.70;;
21894;SDS011;11112;51.270;7.224;2022-07-29T05:56:45;8.05;;;1.90;;
21894;SDS011;11112;51.270;7.224;2022-07-29T05:59:12;5.93;;;1.60;;
21894;SDS011;11112;51.270;7.224;2022-07-29T06:01:39;10.32;;;1.73;;
21894;SDS011;11112;51.270;7.224;2022-07-29T06:04:07;8.77;;;1.70;;
21894;SDS011;11112;51.270;7.224;2022-07-29T06:06:35;7.85;;;1.80;;
21894;SDS011;11112;51.270;7.224;2022-07-29T06:09:02;8.68;;;1.75;;
21894;SDS011;11112;51.270;7.224;2022-07-29T06:11:30;9.38;;;1.67;;
21894;SDS011;11112;51.270;7.224;2022-07-29T06:13:57;10.60;;;1.92;;
21894;SDS011;11112;51.270;7.224;2022-07-29T06:16:24;6.43;;;1.73;;
21894;SDS011;11112;51.270;7.224;2022-07-29T06:18:51;10.13;;;2.13;;
21894;SDS011;11112;51.270;7.224;2022-07-29T06:21:18;8.77;;;1.60;;
21894;SDS011;11112;51.270;7.224;2022-07-29T06:23:46;6.25;;;1.75;;
21894;SDS011;11112;51.270;7.224;2022-07-29T06:26:13;6.13;;;1.75;;
21894;SDS011;11112;51.270;7.224;2022-07-29T06:28:42;7.85;;;2.08;;
21894;SDS011;11112;51.270;7.224;2022-07-29T06:31:09;9.68;;;2.25;;
21894;SDS011;11112;51.270;7.224;2022-07-29T06:33:36;11.65;;;2.00;;
21894;SDS011;11112;51.270;7.224;2022-07-29T06:36:04;9.10;;;1.88;;
21894;SDS011;11112;51.270;7.224;2022-07-29T06:38:32;6.22;;;1.88;;
21894;SDS011;11112;51.270;7.224;2022-07-29T06:41:01;5.32;;;1.60;;
21894;SDS011;11112;51.270;7.224;2022-07-29T06:43:29;7.75;;;2.17;;
21894;SDS011;11112;51.270;7.224;2022-07-29T06:46:03;7.75;;;1.70;;
21894;SDS011;11112;51.270;7.224;2022-07-29T06:48:32;7.78;;;2.00;;
21894;SDS011;11112;51.270;7.224;2022-07-29T06:51:01;5.05;;;1.70;;
21894;SDS011;11112;51.270;7.224;2022-07-29T06:53:29;7.15;;;1.92;;
21894;SDS011;11112;51.270;7.224;2022-07-29T06:55:57;7.38;;;1.80;;
21894;SDS011;11112;51.270;7.224;2022-07-29T06:58:26;7.93;;;1.80;;
21894;SDS011;11112;51.270;7.224;2022-07-29T07:00:58;6.95;;;1.90;;
21894;SDS011;11112;51.270;7.224;2022-07-29T07:03:29;8.38;;;2.00;;
21894;SDS011;11112;51.270;7.224;2022-07-29T07:05:57;6.70;;;1.92;;
21894;SDS011;11112;51.270;7.224;2022-07-29T07:08:25;12.30;;;2.40;;
21894;SDS011;11112;51.270;7.224;2022-07-29T07:10:52;9.70;;;2.28;;
21894;SDS011;11112;51.270;7.224;2022-07-29T07:13:20;9.75;;;2.60;;
21894;SDS011;11112;51.270;7.224;2022-07-29T07:15:49;8.95;;;2.05;;
21894;SDS011;11112;51.270;7.224;2022-07-29T07:18:16;10.52;;;2.15;;
21894;SDS011;11112;51.270;7.224;2022-07-29T07:20:44;11.40;;;1.90;;
21894;SDS011;11112;51.270;7.224;2022-07-29T07:23:12;8.48;;;2.28;;
21894;SDS011;11112;51.270;7.224;2022-07-29T07:25:39;9.63;;;1.98;;
21894;SDS011;11112;51.270;7.224;2022-07-29T07:28:07;7.63;;;2.08;;
21894;SDS011;11112;51.270;7.224;2022-07-29T07:30:36;10.75;;;2.40;;
21894;SDS011;11112;51.270;7.224;2022-07-29T07:33:05;16.85;;;2.47;;
21894;SDS011;11112;51.270;7.224;2022-07-29T07:35:32;8.63;;;2.13;;
21894;SDS011;11112;51.270;7.224;2022-07-29T07:38:00;8.95;;;2.15;;
21894;SDS011;11112;51.270;7.224;2022-07-29T07:40:27;8.57;;;2.30;;
21894;SDS011;11112;51.270;7.224;2022-07-29T07:42:54;8.20;;;2.17;;
21894;SDS011;11112;51.270;7.224;2022-07-29T07:45:21;9.68;;;2.40;;
21894;SDS011;11112;51.270;7.224;2022-07-29T07:47:49;12.57;;;2.85;;
21894;SDS011;11112;51.270;7.224;2022-07-29T07:50:18;13.57;;;2.60;;
21894;SDS011;11112;51.270;7.224;2022-07-29T07:52:46;9.23;;;2.42;;
21894;SDS011;11112;51.270;7.224;2022-07-29T07:55:14;7.07;;;2.15;;
21894;SDS011;11112;51.270;7.224;2022-07-29T07:57:42;11.60;;;2.38;;
21894;SDS011;11112;51.270;7.224;2022-07-29T08:00:10;11.32;;;2.70;;
21894;SDS011;11112;51.270;7.224;2022-07-29T08:02:39;5.80;;;2.00;;
21894;SDS011;11112;51.270;7.224;2022-07-29T08:05:07;10.52;;;2.50;;
21894;SDS011;11112;51.270;7.224;2022-07-29T08:07:38;8.65;;;2.10;;
21894;SDS011;11112;51.270;7.224;2022-07-29T08:10:05;11.25;;;2.28;;
21894;SDS011;11112;51.270;7.224;2022-07-29T08:12:33;8.32;;;2.30;;
21894;SDS011;11112;51.270;7.224;2022-07-29T08:15:01;13.80;;;2.28;;
21894;SDS011;11112;51.270;7.224;2022-07-29T08:17:28;9.35;;;2.28;;
21894;SDS011;11112;51.270;7.224;2022-07-29T08:19:55;8.85;;;2.30;;
21894;SDS011;11112;51.270;7.224;2022-07-29T08:22:22;9.73;;;2.47;;
21894;SDS011;11112;51.270;7.224;2022-07-29T08:24:50;11.07;;;2.33;;
21894;SDS011;11112;51.270;7.224;2022-07-29T08:27:21;8.18;;;2.40;;
21894;SDS011;11112;51.270;7.224;2022-07-29T08:29:51;8.77;;;1.95;;
21894;SDS011;11112;51.270;7.224;2022-07-29T08:32:20;10.90;;;2.30;;
21894;SDS011;11112;51.270;7.224;2022-07-29T08:34:47;6.97;;;2.35;;
21894;SDS011;11112;51.270;7.224;2022-07-29T08:37:15;10.02;;;2.33;;
21894;SDS011;11112;51.270;7.224;2022-07-29T08:39:42;5.80;;;2.05;;
21894;SDS011;11112;51.270;7.224;2022-07-29T08:42:11;9.38;;;2.20;;
21894;SDS011;11112;51.270;7.224;2022-07-29T08:44:39;11.90;;;2.08;;
21894;SDS011;11112;51.270;7.224;2022-07-29T08:47:06;8.55;;;2.03;;
21894;SDS011;11112;51.270;7.224;2022-07-29T08:49:34;8.52;;;1.92;;
21894;SDS011;11112;51.270;7.224;2022-07-29T08:52:01;8.13;;;2.08;;
21894;SDS011;11112;51.270;7.224;2022-07-29T08:54:29;5.90;;;2.08;;
21894;SDS011;11112;51.270;7.224;2022-07-29T08:56:57;11.65;;;2.00;;
21894;SDS011;11112;51.270;7.224;2022-07-29T08:59:27;8.05;;;2.00;;
21894;SDS011;11112;51.270;7.224;2022-07-29T09:01:57;10.65;;;2.20;;
21894;SDS011;11112;51.270;7.224;2022-07-29T09:04:26;9.50;;;2.25;;
21894;SDS011;11112;51.270;7.224;2022-07-29T09:06:59;5.90;;;2.33;;
21894;SDS011;11112;51.270;7.224;2022-07-29T09:09:30;8.77;;;2.42;;
21894;SDS011;11112;51.270;7.224;2022-07-29T09:11:59;10.57;;;2.45;;
21894;SDS011;11112;51.270;7.224;2022-07-29T09:14:30;7.88;;;2.40;;
21894;SDS011;11112;51.270;7.224;2022-07-29T09:16:57;9.00;;;2.25;;
21894;SDS011;11112;51.270;7.224;2022-07-29T09:19:26;6.82;;;2.10;;
21894;SDS011;11112;51.270;7.224;2022-07-29T09:22:00;8.25;;;2.10;;
21894;SDS011;11112;51.270;7.224;2022-07-29T09:24:37;5.70;;;2.22;;
21894;SDS011;11112;51.270;7.224;2022-07-29T09:27:07;9.07;;;1.88;;
21894;SDS011;11112;51.270;7.224;2022-07-29T09:29:46;6.78;;;2.30;;
21894;SDS011;11112;51.270;7.224;2022-07-29T09:32:14;5.28;;;1.75;;
21894;SDS011;11112;51.270;7.224;2022-07-29T09:34:41;6.43;;;2.25;;
21894;SDS011;11112;51.270;7.224;2022-07-29T09:37:09;6.03;;;2.03;;
21894;SDS011;11112;51.270;7.224;2022-07-29T09:39:37;8.75;;;2.10;;
21894;SDS011;11112;51.270;7.224;2022-07-29T09:42:10;8.48;;;2.03;;
21894;SDS011;11112;51.270;7.224;2022-07-29T09:44:42;7.47;;;2.08;;
21894;SDS011;11112;51.270;7.224;2022-07-29T09:47:13;5.82;;;1.88;;
21894;SDS011;11112;51.270;7.224;2022-07-29T09:49:52;6.60;;;1.73;;
21894;SDS011;11112;51.270;7.224;2022-07-29T09:52:22;7.63;;;2.00;;
21894;SDS011;11112;51.270;7.224;2022-07-29T09:54:50;7.88;;;2.20;;
21894;SDS011;11112;51.270;7.224;2022-07-29T09:57:22;10.25;;;2.20;;
21894;SDS011;11112;51.270;7.224;2022-07-29T10:00:00;6.60;;;1.88;;
21894;SDS011;11112;51.270;7.224;2022-07-29T10:02:30;5.32;;;1.92;;
21894;SDS011;11112;51.270;7.224;2022-07-29T10:04:59;11.57;;;2.08;;
21894;SDS011;11112;51.270;7.224;2022-07-29T10:07:42;8.73;;;2.13;;
21894;SDS011;11112;51.270;7.224;2022-07-29T10:10:17;8.15;;;1.90;;
21894;SDS011;11112;51.270;7.224;2022-07-29T10:12:50;7.22;;;2.13;;
21894;SDS011;11112;51.270;7.224;2022-07-29T10:15:22;5.78;;;1.90;;
21894;SDS011;11112;51.270;7.224;2022-07-29T10:17:51;6.68;;;2.25;;
21894;SDS011;11112;51.270;7.224;2022-07-29T10:20:21;6.45;;;2.17;;
21894;SDS011;11112;51.270;7.224;2022-07-29T10:22:49;5.93;;;2.15;;
21894;SDS011;11112;51.270;7.224;2022-07-29T10:25:19;7.50;;;2.00;;
21894;SDS011;11112;51.270;7.224;2022-07-29T10:27:46;8.88;;;2.10;;
21894;SDS011;11112;51.270;7.224;2022-07-29T10:30:16;7.07;;;2.00;;
21894;SDS011;11112;51.270;7.224;2022-07-29T10:32:51;6.53;;;1.98;;
21894;SDS011;11112;51.270;7.224;2022-07-29T10:35:40;5.55;;;1.83;;
21894;SDS011;11112;51.270;7.224;2022-07-29T10:41:27;8.10;;;2.00;;
21894;SDS011;11112;51.270;7.224;2022-07-29T10:44:13;8.70;;;2.10;;
21894;SDS011;11112;51.270;7.224;2022-07-29T10:46:43;5.90;;;1.90;;
21894;SDS011;11112;51.270;7.224;2022-07-29T10:49:12;10.93;;;2.00;;
21894;SDS011;11112;51.270;7.224;2022-07-29T10:51:54;6.68;;;2.28;;
21894;SDS011;11112;51.270;7.224;2022-07-29T10:54:41;5.38;;;2.10;;
21894;SDS011;11112;51.270;7.224;2022-07-29T10:57:20;6.45;;;1.95;;
21894;SDS011;11112;51.270;7.224;2022-07-29T11:02:59;5.90;;;2.25;;
21894;SDS011;11112;51.270;7.224;2022-07-29T11:05:27;8.63;;;2.00;;
21894;SDS011;11112;51.270;7.224;2022-07-29T11:10:50;4.78;;;1.75;;
21894;SDS011;11112;51.270;7.224;2022-07-29T11:13:50;7.15;;;1.85;;
21894;SDS011;11112;51.270;7.224;2022-07-29T11:16:20;9.60;;;1.90;;
21894;SDS011;11112;51.270;7.224;2022-07-29T11:21:48;4.75;;;1.80;;
21894;SDS011;11112;51.270;7.224;2022-07-29T11:24:17;6.60;;;1.70;;
21894;SDS011;11112;51.270;7.224;2022-07-29T11:29:48;6.40;;;2.40;;
21894;SDS011;11112;51.270;7.224;2022-07-29T11:32:18;6.25;;;1.80;;
21894;SDS011;11112;51.270;7.224;2022-07-29T11:34:47;7.18;;;2.15;;
21894;SDS011;11112;51.270;7.224;2022-07-29T11:37:19;8.63;;;2.20;;
21894;SDS011;11112;51.270;7.224;2022-07-29T11:42:46;5.90;;;1.83;;
21894;SDS011;11112;51.270;7.224;2022-07-29T11:45:20;8.00;;;1.92;;
21894;SDS011;11112;51.270;7.224;2022-07-29T11:47:53;6.90;;;1.80;;
21894;SDS011;11112;51.270;7.224;2022-07-29T11:50:32;6.20;;;1.92;;
21894;SDS011;11112;51.270;7.224;2022-07-29T11:53:01;10.13;;;2.10;;
21894;SDS011;11112;51.270;7.224;2022-07-29T11:55:37;7.13;;;2.05;;
21894;SDS011;11112;51.270;7.224;2022-07-29T11:58:06;13.02;;;2.50;;
21894;SDS011;11112;51.270;7.224;2022-07-29T12:00:36;9.60;;;2.45;;
21894;SDS011;11112;51.270;7.224;2022-07-29T12:03:06;14.30;;;2.25;;
21894;SDS011;11112;51.270;7.224;2022-07-29T12:05:37;11.73;;;2.58;;
21894;SDS011;11112;51.270;7.224;2022-07-29T12:08:08;9.70;;;2.40;;
21894;SDS011;11112;51.270;7.224;2022-07-29T12:10:38;8.57;;;2.08;;
21894;SDS011;11112;51.270;7.224;2022-07-29T12:13:07;8.00;;;2.25;;
21894;SDS011;11112;51.270;7.224;2022-07-29T12:15:36;11.35;;;2.25;;
21894;SDS011;11112;51.270;7.224;2022-07-29T12:18:13;11.65;;;2.50;;
21894;SDS011;11112;51.270;7.224;2022-07-29T12:20:43;8.25;;;2.22;;
21894;SDS011;11112;51.270;7.224;2022-07-29T12:23:11;12.32;;;2.35;;
21894;SDS011;11112;51.270;7.224;2022-07-29T12:25:39;9.75;;;2.60;;
21894;SDS011;11112;51.270;7.224;2022-07-29T12:28:09;8.60;;;2.75;;
21894;SDS011;11112;51.270;7.224;2022-07-29T12:30:43;12.93;;;2.90;;
21894;SDS011;11112;51.270;7.224;2022-07-29T12:33:17;11.23;;;3.13;;
21894;SDS011;11112;51.270;7.224;2022-07-29T12:35:48;7.88;;;2.80;;
21894;SDS011;11112;51.270;7.224;2022-07-29T12:38:18;8.50;;;2.58;;
21894;SDS011;11112;51.270;7.224;2022-07-29T12:40:46;10.27;;;2.70;;
21894;SDS011;11112;51.270;7.224;2022-07-29T12:43:16;8.65;;;2.72;;
21894;SDS011;11112;51.270;7.224;2022-07-29T12:45:47;9.98;;;2.78;;
21894;SDS011;11112;51.270;7.224;2022-07-29T12:48:16;8.57;;;2.90;;
21894;SDS011;11112;51.270;7.224;2022-07-29T12:50:54;12.52;;;2.97;;
21894;SDS011;11112;51.270;7.224;2022-07-29T12:53:23;7.00;;;2.58;;
21894;SDS011;11112;51.270;7.224;2022-07-29T12:55:52;11.18;;;2.70;;
21894;SDS011;11112;51.270;7.224;2022-07-29T12:58:27;8.20;;;2.50;;
21894;SDS011;11112;51.270;7.224;2022-07-29T13:01:05;12.75;;;3.25;;
21894;SDS011;11112;51.270;7.224;2022-07-29T13:03:48;8.13;;;2.50;;
21894;SDS011;11112;51.270;7.224;2022-07-29T13:06:28;9.18;;;2.53;;
21894;SDS011;11112;51.270;7.224;2022-07-29T13:08:58;9.48;;;3.08;;
21894;SDS011;11112;51.270;7.224;2022-07-29T13:11:29;9.00;;;2.60;;
21894;SDS011;11112;51.270;7.224;2022-07-29T13:13:57;8.88;;;3.00;;
21894;SDS011;11112;51.270;7.224;2022-07-29T13:16:26;9.13;;;3.30;;
21894;SDS011;11112;51.270;7.224;2022-07-29T13:19:03;6.88;;;2.83;;
21894;SDS011;11112;51.270;7.224;2022-07-29T13:21:32;7.28;;;2.58;;
21894;SDS011;11112;51.270;7.224;2022-07-29T13:24:00;12.10;;;3.28;;
21894;SDS011;11112;51.270;7.224;2022-07-29T13:26:27;12.05;;;3.03;;
21894;SDS011;11112;51.270;7.224;2022-07-29T13:28:54;9.38;;;3.10;;
21894;SDS011;11112;51.270;7.224;2022-07-29T13:31:21;12.30;;;3.03;;
21894;SDS011;11112;51.270;7.224;2022-07-29T13:33:51;10.07;;;2.90;;
21894;SDS011;11112;51.270;7.224;2022-07-29T13:36:18;8.65;;;2.90;;
21894;SDS011;11112;51.270;7.224;2022-07-29T13:38:47;13.27;;;3.05;;
21894;SDS011;11112;51.270;7.224;2022-07-29T13:41:14;7.85;;;2.92;;
21894;SDS011;11112;51.270;7.224;2022-07-29T13:43:41;11.82;;;3.28;;
21894;SDS011;11112;51.270;7.224;2022-07-29T13:46:08;10.77;;;3.42;;
21894;SDS011;11112;51.270;7.224;2022-07-29T13:48:36;9.73;;;2.97;;
21894;SDS011;11112;51.270;7.224;2022-07-29T13:51:04;11.70;;;3.22;;
21894;SDS011;11112;51.270;7.224;2022-07-29T13:53:32;9.30;;;2.88;;
21894;SDS011;11112;51.270;7.224;2022-07-29T13:55:59;14.73;;;3.20;;
21894;SDS011;11112;51.270;7.224;2022-07-29T13:58:26;10.52;;;3.05;;
21894;SDS011;11112;51.270;7.224;2022-07-29T14:00:53;12.57;;;3.10;;
21894;SDS011;11112;51.270;7.224;2022-07-29T14:03:21;8.18;;;3.10;;
21894;SDS011;11112;51.270;7.224;2022-07-29T14:05:49;8.43;;;2.60;;
21894;SDS011;11112;51.270;7.224;2022-07-29T14:08:18;8.23;;;2.80;;
21894;SDS011;11112;51.270;7.224;2022-07-29T14:10:45;10.15;;;3.28;;
21894;SDS011;11112;51.270;7.224;2022-07-29T14:13:12;7.32;;;3.20;;
21894;SDS011;11112;51.270;7.224;2022-07-29T14:15:39;7.78;;;3.03;;
21894;SDS011;11112;51.270;7.224;2022-07-29T14:18:06;6.45;;;3.00;;
21894;SDS011;11112;51.270;7.224;2022-07-29T14:20:36;10.82;;;3.40;;
21894;SDS011;11112;51.270;7.224;2022-07-29T14:23:03;7.03;;;3.58;;
21894;SDS011;11112;51.270;7.224;2022-07-29T14:25:31;12.77;;;3.40;;
21894;SDS011;11112;51.270;7.224;2022-07-29T14:27:58;8.98;;;3.13;;
21894;SDS011;11112;51.270;7.224;2022-07-29T14:30:25;11.43;;;3.10;;
21894;SDS011;11112;51.270;7.224;2022-07-29T14:32:52;11.02;;;2.65;;
21894;SDS011;11112;51.270;7.224;2022-07-29T14:35:19;10.98;;;2.90;;
21894;SDS011;11112;51.270;7.224;2022-07-29T14:37:47;13.23;;;3.10;;
21894;SDS011;11112;51.270;7.224;2022-07-29T14:40:14;9.43;;;2.67;;
21894;SDS011;11112;51.270;7.224;2022-07-29T14:42:42;10.13;;;3.30;;
21894;SDS011;11112;51.270;7.224;2022-07-29T14:45:10;7.35;;;2.85;;
21894;SDS011;11112;51.270;7.224;2022-07-29T14:47:37;10.73;;;2.83;;
21894;SDS011;11112;51.270;7.224;2022-07-29T14:50:08;7.72;;;2.75;;
21894;SDS011;11112;51.270;7.224;2022-07-29T14:52:35;9.10;;;2.60;;
21894;SDS011;11112;51.270;7.224;2022-07-29T14:55:02;7.53;;;2.45;;
21894;SDS011;11112;51.270;7.224;2022-07-29T14:57:31;7.10;;;3.15;;
21894;SDS011;11112;51.270;7.224;2022-07-29T14:59:59;9.32;;;3.50;;
21894;SDS011;11112;51.270;7.224;2022-07-29T15:02:30;6.40;;;2.92;;
21894;SDS011;11112;51.270;7.224;2022-07-29T15:04:57;7.80;;;2.60;;
21894;SDS011;11112;51.270;7.224;2022-07-29T15:07:24;12.27;;;3.03;;
21894;SDS011;11112;51.270;7.224;2022-07-29T15:09:51;7.35;;;2.95;;
21894;SDS011;11112;51.270;7.224;2022-07-29T15:12:18;9.38;;;3.30;;
21894;SDS011;11112;51.270;7.224;2022-07-29T15:14:46;10.15;;;2.83;;
21894;SDS011;11112;51.270;7.224;2022-07-29T15:17:14;10.45;;;3.33;;
21894;SDS011;11112;51.270;7.224;2022-07-29T15:19:41;9.98;;;3.08;;
21894;SDS011;11112;51.270;7.224;2022-07-29T15:22:08;9.80;;;3.83;;
21894;SDS011;11112;51.270;7.224;2022-07-29T15:24:36;10.55;;;3.45;;